createdAt,value
2018-05-17T00:01:38.994Z,5
2018-05-17T00:11:39.106Z,5
2018-05-17T00:21:39.057Z,3
2018-05-17T00:31:39.092Z,4
2018-05-17T00:41:39.116Z,4
2018-05-17T00:51:39.994Z,5
2018-05-17T01:01:39.042Z,5
2018-05-17T01:11:39.029Z,6
2018-05-17T01:21:39.094Z,6
2018-05-17T01:31:40.152Z,7
2018-05-17T01:41:39.013Z,7
2018-05-17T01:51:40.103Z,6
2018-05-17T02:01:40.096Z,8
2018-05-17T02:11:38.974Z,6
2018-05-17T02:21:39.059Z,8
2018-05-17T02:31:39.076Z,7
2018-05-17T02:41:40.097Z,8
2018-05-17T02:51:39.016Z,6
2018-05-17T03:01:39.136Z,7
2018-05-17T03:11:39.049Z,8
2018-05-17T03:21:38.994Z,8
2018-05-17T03:31:39.097Z,6
2018-05-17T03:41:39.014Z,7
2018-05-17T03:51:39.610Z,7
2018-05-17T04:01:39.091Z,8
2018-05-17T04:11:39.132Z,7
2018-05-17T04:21:40.147Z,7
2018-05-17T04:31:39.219Z,9
2018-05-17T04:41:40.142Z,8
2018-05-17T04:51:39.177Z,8
2018-05-17T05:01:40.092Z,7
2018-05-17T05:11:40.180Z,7
2018-05-17T05:21:39.169Z,10
2018-05-17T05:31:39.318Z,9
2018-05-17T05:41:39.191Z,8
2018-05-17T05:51:39.155Z,7
2018-05-17T06:01:40.382Z,5
2018-05-17T06:11:39.165Z,6
2018-05-17T06:21:39.324Z,5
2018-05-17T06:31:39.402Z,7
2018-05-17T06:41:39.341Z,6
2018-05-17T06:51:39.414Z,5
2018-05-17T07:01:39.358Z,5
2018-05-17T07:11:39.401Z,5
2018-05-17T07:21:39.319Z,5
2018-05-17T07:31:39.401Z,5
2018-05-17T07:41:39.432Z,4
2018-05-17T07:51:39.431Z,4
2018-05-17T08:01:39.409Z,4
2018-05-17T08:11:39.290Z,5
2018-05-17T08:21:39.404Z,4
2018-05-17T08:31:39.309Z,5
2018-05-17T08:41:40.423Z,4
2018-05-17T08:53:08.863Z,4
2018-05-17T09:03:13.957Z,6
2018-05-17T09:13:08.518Z,6
2018-05-17T09:23:16.627Z,6
2018-05-17T09:33:12.986Z,4
2018-05-17T09:42:57.175Z,5
2018-05-17T09:52:25.024Z,5
2018-05-17T10:02:48.872Z,5
2018-05-17T10:12:53.752Z,6
2018-05-17T10:21:57.178Z,6
2018-05-17T10:31:52.232Z,5
2018-05-17T10:41:52.823Z,6
2018-05-17T10:51:51.909Z,5
2018-05-17T11:01:54.194Z,5
2018-05-17T11:11:53.734Z,5
2018-05-17T11:21:52.522Z,5
2018-05-17T11:32:54.397Z,6
2018-05-17T11:42:37.959Z,6
2018-05-17T11:51:54.281Z,6
2018-05-17T12:01:53.510Z,5
2018-05-17T12:11:53.697Z,5
2018-05-17T12:21:55.488Z,5
2018-05-17T12:31:54.798Z,5
2018-05-17T12:41:52.973Z,6
2018-05-17T12:51:52.844Z,4
2018-05-17T13:01:53.390Z,5
2018-05-17T13:12:20.809Z,6
2018-05-17T13:21:52.172Z,5
2018-05-17T13:33:01.304Z,4
2018-05-17T13:41:39.311Z,6
2018-05-17T13:51:39.540Z,6
2018-05-17T14:02:36.361Z,5
2018-05-17T14:12:58.211Z,5
2018-05-17T14:22:03.770Z,5
2018-05-17T14:31:52.360Z,6
2018-05-17T14:41:50.332Z,6
2018-05-17T14:51:50.905Z,5
2018-05-17T15:12:48.483Z,6
2018-05-17T15:14:06.012Z,6
2018-05-17T15:23:42.638Z,5
2018-05-17T15:33:44.149Z,7
2018-05-17T15:43:41.213Z,6
2018-05-17T15:53:38.024Z,6
2018-05-17T16:03:37.758Z,6
2018-05-17T16:13:47.411Z,6
2018-05-17T16:23:40.894Z,7
2018-05-17T16:33:37.322Z,6
2018-05-17T16:43:37.596Z,6
2018-05-17T16:53:35.302Z,6
2018-05-17T17:03:44.211Z,6
2018-05-17T17:13:44.080Z,6
2018-05-17T17:23:43.460Z,6
2018-05-17T17:33:51.369Z,6
2018-05-17T17:43:39.738Z,6
2018-05-17T17:53:41.490Z,8
2018-05-17T18:04:16.827Z,7
2018-05-17T18:14:06.719Z,7
2018-05-17T18:24:35.488Z,8
2018-05-17T18:34:03.967Z,6
2018-05-17T18:43:39.997Z,6
2018-05-17T18:53:38.470Z,6
2018-05-17T19:03:38.911Z,6
2018-05-17T19:13:37.329Z,6
2018-05-17T19:23:29.480Z,5
2018-05-17T19:33:29.326Z,6
2018-05-17T19:43:29.583Z,5
2018-05-17T19:53:29.471Z,6
2018-05-17T20:03:29.463Z,6
2018-05-17T20:13:29.499Z,5
2018-05-17T20:23:29.540Z,7
2018-05-17T20:33:29.566Z,6
2018-05-17T20:43:29.377Z,7
2018-05-17T20:53:29.364Z,7
2018-05-17T21:03:29.832Z,6
2018-05-17T21:13:29.524Z,7
2018-05-17T21:23:29.479Z,6
2018-05-17T21:33:29.655Z,6
2018-05-17T21:43:29.732Z,7
2018-05-17T21:53:29.535Z,7
2018-05-17T22:03:29.381Z,8
2018-05-17T22:13:30.105Z,6
2018-05-17T22:23:29.552Z,7
2018-05-17T22:33:29.642Z,6
2018-05-17T22:43:29.437Z,6
2018-05-17T22:53:29.359Z,6
2018-05-17T23:03:29.603Z,6
2018-05-17T23:13:29.586Z,6
2018-05-17T23:23:29.622Z,6
2018-05-17T23:33:29.868Z,6
2018-05-17T23:43:29.901Z,6
2018-05-17T23:53:44.030Z,6
